Time,TemperatureF,DewpointF,PressureIn,WindDirection,WindDirectionDegrees,WindSpeedMPH,WindSpeedGustMPH,Humidity,HourlyPrecipIn,Conditions,Clouds,dailyrainin,SolarRadiationWatts/m^2,SoftwareType,DateUTC
2013-01-30 00:00:00,32.0,23.0,30.25,North,5,0.0,13.0,69,0.00,,,0.05,0,Wunderground v.1.15,2013-01-30 07:00:00,
2013-01-30 00:10:00,31.4,22.7,30.26,North,5,0.0,13.0,70,0.00,,,0.00,0,Wunderground v.1.15,2013-01-30 07:10:00,
2013-01-30 00:20:00,30.1,22.8,30.27,North,5,0.0,13.0,74,0.00,,,0.00,0,Wunderground v.1.15,2013-01-30 07:20:00,
2013-01-30 00:30:00,30.4,22.8,30.27,North,5,0.0,13.0,73,0.00,,,0.00,0,Wunderground v.1.15,2013-01-30 07:30:00,
2013-01-30 00:40:00,30.6,22.6,30.27,North,355,0.0,13.0,72,0.00,,,0.00,0,Wunderground v.1.15,2013-01-30 07:40:00,
2013-01-30 00:50:00,30.6,22.6,30.27,North,355,0.0,13.0,72,0.00,,,0.00,0,Wunderground v.1.15,2013-01-30 07:50:00,
2013-01-30 01:00:00,30.4,22.4,30.27,North,355,0.0,13.0,72,0.00,,,0.00,0,Wunderground v.1.15,2013-01-30 08:00:00,
2013-01-30 01:10:00,29.6,22.6,30.27,North,355,0.0,13.0,75,0.00,,,0.00,0,Wunderground v.1.15,2013-01-30 08:10:00,
2013-01-30 01:19:00,29.6,22.6,30.27,North,5,0.0,13.0,75,0.00,,,0.00,0,Wunderground v.1.15,2013-01-30 08:19:00,
2013-01-30 01:30:00,30.2,22.9,30.28,NNE,19,0.0,13.0,74,0.00,,,0.00,0,Wunderground v.1.15,2013-01-30 08:30:00,
2013-01-30 01:40:00,30.0,23.0,30.28,NNE,21,0.0,13.0,75,0.00,,,0.00,0,Wunderground v.1.15,2013-01-30 08:40:00,
2013-01-30 01:49:00,29.9,22.6,30.28,NNE,21,0.0,13.0,74,0.00,,,0.00,0,Wunderground v.1.15,2013-01-30 08:49:00,
2013-01-30 02:00:00,29.2,22.6,30.28,NNE,21,0.0,13.0,76,0.00,,,0.00,0,Wunderground v.1.15,2013-01-30 09:00:00,
2013-01-30 02:10:00,29.0,22.7,30.28,NNE,21,0.0,13.0,77,0.00,,,0.00,0,Wunderground v.1.15,2013-01-30 09:10:00,
2013-01-30 02:20:00,29.2,22.9,30.28,North,9,0.0,13.0,77,0.00,,,0.00,0,Wunderground v.1.15,2013-01-30 09:20:00,
2013-01-30 02:30:00,29.2,22.9,30.29,North,360,0.0,13.0,77,0.00,,,0.00,0,Wunderground v.1.15,2013-01-30 09:30:00,
2013-01-30 02:39:00,29.0,22.7,30.29,NW,316,0.0,13.0,77,0.00,,,0.00,0,Wunderground v.1.15,2013-01-30 09:39:00,
2013-01-30 02:50:00,28.8,22.5,30.30,NW,311,0.0,13.0,77,0.00,,,0.00,0,Wunderground v.1.15,2013-01-30 09:50:00,
2013-01-30 02:59:00,28.9,22.6,30.29,NW,312,0.0,13.0,77,0.00,,,0.00,0,Wunderground v.1.15,2013-01-30 09:59:00,
2013-01-30 03:09:00,28.8,22.5,30.30,NW,318,0.0,13.0,77,0.00,,,0.00,0,Wunderground v.1.15,2013-01-30 10:09:00,
2013-01-30 03:19:00,28.8,22.5,30.31,NW,321,0.0,13.0,77,0.00,,,0.00,0,Wunderground v.1.15,2013-01-30 10:19:00,
2013-01-30 03:29:00,28.5,22.5,30.31,NW,321,0.0,13.0,78,0.00,,,0.00,0,Wunderground v.1.15,2013-01-30 10:29:00,
2013-01-30 03:39:00,28.4,22.4,30.31,NW,321,0.0,13.0,78,0.00,,,0.00,0,Wunderground v.1.15,2013-01-30 10:39:00,
2013-01-30 03:49:00,28.6,22.3,30.31,NW,321,0.0,13.0,77,0.00,,,0.00,0,Wunderground v.1.15,2013-01-30 10:49:00,
2013-01-30 03:59:00,28.4,22.4,30.31,NW,321,0.0,13.0,78,0.00,,,0.00,0,Wunderground v.1.15,2013-01-30 10:59:00,
2013-01-30 04:10:00,27.8,21.8,30.32,NW,321,0.0,13.0,78,0.00,,,0.00,0,Wunderground v.1.15,2013-01-30 11:10:00,
2013-01-30 04:20:00,27.0,21.7,30.32,NW,321,0.0,13.0,80,0.00,,,0.00,0,Wunderground v.1.15,2013-01-30 11:20:00,
2013-01-30 04:30:00,26.6,21.8,30.32,NW,306,1.0,13.0,82,0.00,,,0.00,0,Wunderground v.1.15,2013-01-30 11:30:00,
2013-01-30 04:40:00,28.1,22.4,30.32,NW,304,3.0,3.0,79,0.00,,,0.00,0,Wunderground v.1.15,2013-01-30 11:40:00,
2013-01-30 04:50:00,29.1,22.5,30.32,NW,313,1.0,13.0,76,0.00,,,0.00,0,Wunderground v.1.15,2013-01-30 11:50:00,
2013-01-30 05:00:00,29.1,22.5,30.32,WNW,303,4.0,4.0,76,0.00,,,0.00,0,Wunderground v.1.15,2013-01-30 12:00:00,
2013-01-30 05:10:00,28.3,22.3,30.33,WNW,299,2.0,2.0,78,0.00,,,0.00,0,Wunderground v.1.15,2013-01-30 12:10:00,
2013-01-30 05:20:00,27.9,22.5,30.33,ENE,76,0.0,13.0,80,0.00,,,0.00,0,Wunderground v.1.15,2013-01-30 12:20:00,
2013-01-30 05:29:00,28.1,22.4,30.34,ENE,76,0.0,13.0,79,0.00,,,0.00,0,Wunderground v.1.15,2013-01-30 12:29:00,
2013-01-30 05:39:00,27.6,21.9,30.34,ENE,76,0.0,13.0,79,0.00,,,0.00,0,Wunderground v.1.15,2013-01-30 12:39:00,
2013-01-30 05:49:00,26.5,21.5,30.34,ESE,114,0.0,13.0,81,0.00,,,0.00,0,Wunderground v.1.15,2013-01-30 12:49:00,
2013-01-30 06:00:00,25.5,21.3,30.35,SE,128,0.0,13.0,84,0.00,,,0.00,0,Wunderground v.1.15,2013-01-30 13:00:00,
2013-01-30 06:09:00,25.6,21.4,30.35,SW,232,0.0,0.0,84,0.00,,,0.00,0,Wunderground v.1.15,2013-01-30 13:09:00,
2013-01-30 06:19:00,25.2,21.0,30.35,SW,232,0.0,0.0,84,0.00,,,0.00,0,Wunderground v.1.15,2013-01-30 13:19:00,
2013-01-30 06:29:00,24.4,20.8,30.35,South,175,0.0,0.0,86,0.00,,,0.00,0,Wunderground v.1.15,2013-01-30 13:29:00,
2013-01-30 06:39:00,24.4,21.1,30.35,SSW,209,0.0,0.0,87,0.00,,,0.00,0,Wunderground v.1.15,2013-01-30 13:39:00,
2013-01-30 06:50:00,23.9,20.6,30.35,SSW,209,0.0,0.0,87,0.00,,,0.00,0,Wunderground v.1.15,2013-01-30 13:50:00,
2013-01-30 06:59:00,24.5,21.2,30.36,SSW,209,0.0,0.0,87,0.00,,,0.00,0,Wunderground v.1.15,2013-01-30 13:59:00,
2013-01-30 07:09:00,24.1,20.8,30.36,SSW,209,0.0,0.0,87,0.00,,,0.00,0,Wunderground v.1.15,2013-01-30 14:09:00,
2013-01-30 07:19:00,23.4,20.1,30.38,SSW,192,0.0,0.0,87,0.00,,,0.00,7,Wunderground v.1.15,2013-01-30 14:19:00,
2013-01-30 07:29:00,23.9,20.9,30.39,SSW,195,0.0,0.0,88,0.00,,,0.00,12,Wunderground v.1.15,2013-01-30 14:29:00,
2013-01-30 07:39:00,25.3,22.2,30.39,SSW,205,0.0,0.0,88,0.00,,,0.00,35,Wunderground v.1.15,2013-01-30 14:39:00,
2013-01-30 07:49:00,27.8,24.2,30.39,SSW,192,0.0,0.0,86,0.00,,,0.00,74,Wunderground v.1.15,2013-01-30 14:49:00,
2013-01-30 08:00:00,29.7,24.9,30.39,South,175,0.0,0.0,82,0.00,,,0.00,114,Wunderground v.1.15,2013-01-30 15:00:00,
2013-01-30 08:10:00,31.1,25.7,30.39,South,175,0.0,0.0,80,0.00,,,0.00,156,Wunderground v.1.15,2013-01-30 15:10:00,
2013-01-30 08:20:00,32.4,26.0,30.39,SSW,194,0.0,0.0,77,0.00,,,0.00,197,Wunderground v.1.15,2013-01-30 15:20:00,
2013-01-30 08:30:00,33.8,26.1,30.40,SSW,194,0.0,0.0,73,0.00,,,0.00,211,Wunderground v.1.15,2013-01-30 15:30:00,
2013-01-30 08:40:00,34.8,26.4,30.39,SSW,199,0.0,0.0,71,0.00,,,0.00,246,Wunderground v.1.15,2013-01-30 15:40:00,
2013-01-30 08:50:00,35.8,26.6,30.39,ENE,64,0.0,0.0,69,0.00,,,0.00,281,Wunderground v.1.15,2013-01-30 15:50:00,
2013-01-30 09:00:00,35.7,27.2,30.39,ENE,65,0.0,0.0,71,0.00,,,0.00,313,Wunderground v.1.15,2013-01-30 16:00:00,
2013-01-30 09:10:00,36.1,25.1,30.40,ENE,65,0.0,0.0,64,0.00,,,0.00,346,Wunderground v.1.15,2013-01-30 16:10:00,
2013-01-30 09:20:00,36.6,25.9,30.39,ENE,65,0.0,0.0,65,0.00,,,0.00,380,Wunderground v.1.15,2013-01-30 16:20:00,
2013-01-30 09:30:00,37.5,26.0,30.40,NNE,14,0.0,0.0,63,0.00,,,0.00,408,Wunderground v.1.15,2013-01-30 16:30:00,
2013-01-30 09:40:00,38.4,26.5,30.40,NNE,27,0.0,0.0,62,0.00,,,0.00,434,Wunderground v.1.15,2013-01-30 16:40:00,
2013-01-30 09:50:00,39.4,25.4,30.41,North,5,0.0,0.0,57,0.00,,,0.00,464,Wunderground v.1.15,2013-01-30 16:50:00,
2013-01-30 09:59:00,40.3,25.8,30.40,NNE,20,1.0,4.0,56,0.00,,,0.00,489,Wunderground v.1.15,2013-01-30 16:59:00,
2013-01-30 10:10:00,41.1,22.4,30.42,NNW,345,5.0,5.0,47,0.00,,,0.00,517,Wunderground v.1.15,2013-01-30 17:10:00,
2013-01-30 10:20:00,41.5,21.2,30.42,NNE,13,5.0,5.0,44,0.00,,,0.00,541,Wunderground v.1.15,2013-01-30 17:20:00,
2013-01-30 10:30:00,41.9,22.1,30.42,NNW,334,5.0,5.0,45,0.00,,,0.00,561,Wunderground v.1.15,2013-01-30 17:30:00,
2013-01-30 10:40:00,42.5,21.5,30.42,North,5,6.0,6.0,43,0.00,,,0.00,584,Wunderground v.1.15,2013-01-30 17:40:00,
2013-01-30 10:50:00,43.1,20.4,30.42,NNW,344,6.0,6.0,40,0.00,,,0.00,605,Wunderground v.1.15,2013-01-30 17:50:00,
2013-01-30 11:00:00,43.1,21.0,30.42,NNW,334,6.0,6.0,41,0.00,,,0.00,621,Wunderground v.1.15,2013-01-30 18:00:00,
2013-01-30 11:10:00,43.7,20.3,30.42,NNW,342,5.0,6.0,39,0.00,,,0.00,638,Wunderground v.1.15,2013-01-30 18:10:00,
2013-01-30 11:20:00,44.3,17.7,30.42,NNE,30,4.0,4.0,34,0.00,,,0.00,652,Wunderground v.1.15,2013-01-30 18:20:00,
2013-01-30 11:30:00,44.5,17.1,30.41,NNE,17,4.0,5.0,33,0.00,,,0.00,666,Wunderground v.1.15,2013-01-30 18:30:00,
2013-01-30 11:40:00,45.0,18.3,30.40,NNW,339,3.0,7.0,34,0.00,,,0.00,675,Wunderground v.1.15,2013-01-30 18:40:00,
2013-01-30 11:50:00,45.3,18.5,30.40,NNE,32,6.0,6.0,34,0.00,,,0.00,686,Wunderground v.1.15,2013-01-30 18:50:00,
2013-01-30 12:00:00,45.4,17.2,30.40,NW,324,3.0,3.0,32,0.00,,,0.00,693,Wunderground v.1.15,2013-01-30 19:00:00,
2013-01-30 12:10:00,46.0,17.0,30.39,NNW,329,3.0,3.0,31,0.00,,,0.00,698,Wunderground v.1.15,2013-01-30 19:10:00,
2013-01-30 12:20:00,45.8,16.1,30.39,NE,49,4.0,12.0,30,0.00,,,0.00,705,Wunderground v.1.15,2013-01-30 19:20:00,
2013-01-30 12:30:00,46.4,16.6,30.39,NNE,32,3.0,3.0,30,0.00,,,0.00,708,Wunderground v.1.15,2013-01-30 19:30:00,
2013-01-30 12:40:00,47.0,17.1,30.38,NE,54,3.0,12.0,30,0.00,,,0.00,705,Wunderground v.1.15,2013-01-30 19:40:00,
2013-01-30 12:50:00,47.1,17.2,30.38,NNE,25,3.0,12.0,30,0.00,,,0.00,705,Wunderground v.1.15,2013-01-30 19:50:00,
2013-01-30 13:00:00,47.6,15.2,30.36,North,5,2.0,12.0,27,0.00,,,0.00,700,Wunderground v.1.15,2013-01-30 20:00:00,
2013-01-30 13:10:00,47.9,16.3,30.35,NNW,332,4.0,12.0,28,0.00,,,0.00,700,Wunderground v.1.15,2013-01-30 20:10:00,
2013-01-30 13:20:00,48.5,16.0,30.34,North,5,2.0,12.0,27,0.00,,,0.00,689,Wunderground v.1.15,2013-01-30 20:20:00,
2013-01-30 13:30:00,48.6,15.2,30.34,NW,315,4.0,12.0,26,0.00,,,0.00,680,Wunderground v.1.15,2013-01-30 20:30:00,
2013-01-30 13:40:00,48.8,15.4,30.33,North,355,4.0,12.0,26,0.00,,,0.00,650,Wunderground v.1.15,2013-01-30 20:40:00,
2013-01-30 13:50:00,48.8,12.6,30.33,WNW,290,5.0,5.0,23,0.00,,,0.00,624,Wunderground v.1.15,2013-01-30 20:50:00,
2013-01-30 14:00:00,48.7,14.4,30.32,NNW,347,7.0,7.0,25,0.00,,,0.00,598,Wunderground v.1.15,2013-01-30 21:00:00,
2013-01-30 14:10:00,49.2,13.9,30.31,NNW,331,4.0,12.0,24,0.00,,,0.00,589,Wunderground v.1.15,2013-01-30 21:10:00,
2013-01-30 14:20:00,49.8,14.4,30.31,WNW,301,6.0,6.0,24,0.00,,,0.00,585,Wunderground v.1.15,2013-01-30 21:20:00,
2013-01-30 14:30:00,50.2,12.8,30.30,NNW,339,2.0,12.0,22,0.00,,,0.00,591,Wunderground v.1.15,2013-01-30 21:30:00,
2013-01-30 14:40:00,50.3,12.8,30.30,NNW,342,4.0,4.0,22,0.00,,,0.00,536,Wunderground v.1.15,2013-01-30 21:40:00,
2013-01-30 14:50:00,50.4,12.9,30.30,NNW,347,3.0,12.0,22,0.00,,,0.00,499,Wunderground v.1.15,2013-01-30 21:50:00,
2013-01-30 15:00:00,50.7,14.2,30.30,NW,324,4.0,4.0,23,0.00,,,0.00,499,Wunderground v.1.15,2013-01-30 22:00:00,
2013-01-30 15:10:00,51.0,14.4,30.31,NW,312,5.0,5.0,23,0.00,,,0.00,448,Wunderground v.1.15,2013-01-30 22:10:00,
2013-01-30 15:20:00,51.1,15.5,30.31,NW,315,3.0,3.0,24,0.00,,,0.00,454,Wunderground v.1.15,2013-01-30 22:20:00,
2013-01-30 15:30:00,51.1,15.5,30.30,NW,309,4.0,5.0,24,0.00,,,0.00,427,Wunderground v.1.15,2013-01-30 22:30:00,
2013-01-30 15:40:00,51.0,15.4,30.31,NNW,345,4.0,6.0,24,0.00,,,0.00,413,Wunderground v.1.15,2013-01-30 22:40:00,
2013-01-30 15:50:00,51.5,15.8,30.31,NNE,32,3.0,4.0,24,0.00,,,0.00,376,Wunderground v.1.15,2013-01-30 22:50:00,
2013-01-30 16:00:00,51.3,16.6,30.31,NNW,344,3.0,4.0,25,0.00,,,0.00,320,Wunderground v.1.15,2013-01-30 23:00:00,
2013-01-30 16:10:00,51.0,16.4,30.31,North,355,3.0,3.0,25,0.00,,,0.00,299,Wunderground v.1.15,2013-01-30 23:10:00,
2013-01-30 16:20:00,51.1,16.4,30.31,NNE,12,3.0,10.0,25,0.00,,,0.00,290,Wunderground v.1.15,2013-01-30 23:20:00,
2013-01-30 16:30:00,50.9,18.1,30.30,NNE,16,3.0,3.0,27,0.00,,,0.00,243,Wunderground v.1.15,2013-01-30 23:30:00,
2013-01-30 16:40:00,50.8,18.0,30.30,NW,307,3.0,3.0,27,0.00,,,0.00,192,Wunderground v.1.15,2013-01-30 23:40:00,
2013-01-30 16:50:00,50.5,16.8,30.30,NW,307,3.0,3.0,26,0.00,,,0.00,149,Wunderground v.1.15,2013-01-30 23:50:00,
2013-01-30 17:00:00,50.2,16.6,30.29,NW,324,3.0,3.0,26,0.00,,,0.00,109,Wunderground v.1.15,2013-01-31 00:00:00,
2013-01-30 17:10:00,49.8,17.1,30.30,NW,307,3.0,5.0,27,0.00,,,0.00,58,Wunderground v.1.15,2013-01-31 00:10:00,
2013-01-30 17:20:00,49.2,16.6,30.29,NNW,333,2.0,2.0,27,0.00,,,0.00,40,Wunderground v.1.15,2013-01-31 00:20:00,
2013-01-30 17:30:00,48.5,16.8,30.28,North,355,0.0,0.0,28,0.00,,,0.00,25,Wunderground v.1.15,2013-01-31 00:30:00,
2013-01-30 17:40:00,47.8,17.0,30.28,North,355,0.0,0.0,29,0.00,,,0.00,16,Wunderground v.1.15,2013-01-31 00:40:00,
2013-01-30 17:50:00,46.9,17.8,30.28,North,5,0.0,0.0,31,0.00,,,0.00,7,Wunderground v.1.15,2013-01-31 00:50:00,
2013-01-30 18:00:00,45.8,18.3,30.28,North,5,0.0,0.0,33,0.00,,,0.00,0,Wunderground v.1.15,2013-01-31 01:00:00,
2013-01-30 18:10:00,45.1,18.4,30.28,North,5,0.0,13.0,34,0.00,,,0.00,0,Wunderground v.1.15,2013-01-31 01:10:00,
2013-01-30 18:20:00,44.0,18.7,30.28,North,5,0.0,13.0,36,0.00,,,0.00,0,Wunderground v.1.15,2013-01-31 01:20:00,
2013-01-30 18:30:00,43.0,19.7,30.29,North,5,0.0,13.0,39,0.00,,,0.00,0,Wunderground v.1.15,2013-01-31 01:30:00,
2013-01-30 18:39:00,42.8,18.9,30.29,NW,313,0.0,13.0,38,0.00,,,0.00,0,Wunderground v.1.15,2013-01-31 01:39:00,
2013-01-30 18:50:00,42.4,20.3,30.29,NW,311,0.0,13.0,41,0.00,,,0.00,0,Wunderground v.1.15,2013-01-31 01:50:00,
2013-01-30 19:00:00,41.5,19.5,30.29,WNW,300,0.0,13.0,41,0.00,,,0.00,0,Wunderground v.1.15,2013-01-31 02:00:00,
2013-01-30 19:10:00,40.3,21.1,30.30,WNW,302,0.0,0.0,46,0.00,,,0.00,0,Wunderground v.1.15,2013-01-31 02:10:00,
2013-01-30 19:20:00,39.5,21.9,30.30,WNW,301,0.0,0.0,49,0.00,,,0.00,0,Wunderground v.1.15,2013-01-31 02:20:00,
2013-01-30 19:30:00,39.0,21.9,30.29,WNW,302,0.0,0.0,50,0.00,,,0.00,0,Wunderground v.1.15,2013-01-31 02:30:00,
2013-01-30 19:40:00,38.5,22.4,30.29,WNW,298,0.0,0.0,52,0.00,,,0.00,0,Wunderground v.1.15,2013-01-31 02:40:00,
2013-01-30 19:50:00,38.4,21.8,30.29,NW,304,1.0,3.0,51,0.00,,,0.00,0,Wunderground v.1.15,2013-01-31 02:50:00,
2013-01-30 20:00:00,38.2,23.0,30.29,NW,310,1.0,1.0,54,0.00,,,0.00,0,Wunderground v.1.15,2013-01-31 03:00:00,
2013-01-30 20:10:00,37.6,21.5,30.29,North,355,0.0,3.0,52,0.00,,,0.00,0,Wunderground v.1.15,2013-01-31 03:10:00,
2013-01-30 20:20:00,38.2,21.2,30.29,North,355,0.0,3.0,50,0.00,,,0.00,0,Wunderground v.1.15,2013-01-31 03:20:00,
2013-01-30 20:30:00,38.0,21.0,30.29,North,355,0.0,3.0,50,0.00,,,0.00,0,Wunderground v.1.15,2013-01-31 03:30:00,
2013-01-30 20:40:00,37.5,21.0,30.30,North,355,0.0,3.0,51,0.00,,,0.00,0,Wunderground v.1.15,2013-01-31 03:40:00,
2013-01-30 20:50:00,36.7,21.2,30.30,NW,304,0.0,3.0,53,0.00,,,0.00,0,Wunderground v.1.15,2013-01-31 03:50:00,
2013-01-30 21:00:00,36.7,20.7,30.29,WNW,291,0.0,3.0,52,0.00,,,0.00,0,Wunderground v.1.15,2013-01-31 04:00:00,
2013-01-30 21:10:00,36.2,21.6,30.30,WNW,291,0.0,0.0,55,0.00,,,0.00,0,Wunderground v.1.15,2013-01-31 04:10:00,
2013-01-30 21:19:00,35.9,21.3,30.30,WNW,291,0.0,0.0,55,0.00,,,0.00,0,Wunderground v.1.15,2013-01-31 04:19:00,
2013-01-30 21:30:00,35.3,22.0,30.30,WNW,291,0.0,0.0,58,0.00,,,0.00,0,Wunderground v.1.15,2013-01-31 04:30:00,
2013-01-30 21:39:00,35.1,21.8,30.30,WNW,291,0.0,0.0,58,0.00,,,0.00,0,Wunderground v.1.15,2013-01-31 04:39:00,
2013-01-30 21:50:00,35.1,21.8,30.30,WNW,291,0.0,0.0,58,0.00,,,0.00,0,Wunderground v.1.15,2013-01-31 04:50:00,
2013-01-30 22:09:00,34.9,21.6,30.31,WNW,291,0.0,0.0,58,0.00,,,0.00,0,Wunderground v.1.15,2013-01-31 05:09:00,
2013-01-30 22:20:00,35.3,22.0,30.31,WNW,298,0.0,0.0,58,0.00,,,0.00,0,Wunderground v.1.15,2013-01-31 05:20:00,
2013-01-30 22:30:00,35.2,21.5,30.31,WNW,300,0.0,0.0,57,0.00,,,0.00,0,Wunderground v.1.15,2013-01-31 05:30:00,
2013-01-30 22:40:00,35.8,20.8,30.32,NW,304,0.0,0.0,54,0.00,,,0.00,0,Wunderground v.1.15,2013-01-31 05:40:00,
2013-01-30 22:50:00,36.4,20.4,30.32,WNW,300,0.0,0.0,52,0.00,,,0.00,0,Wunderground v.1.15,2013-01-31 05:50:00,
2013-01-30 23:00:00,36.5,20.5,30.32,NW,313,0.0,0.0,52,0.00,,,0.00,0,Wunderground v.1.15,2013-01-31 06:00:00,
2013-01-30 23:10:00,36.5,20.1,30.33,WNW,302,0.0,0.0,51,0.00,,,0.00,0,Wunderground v.1.15,2013-01-31 06:10:00,
2013-01-30 23:20:00,35.2,21.5,30.33,WNW,302,0.0,0.0,57,0.00,,,0.00,0,Wunderground v.1.15,2013-01-31 06:20:00,
2013-01-30 23:30:00,33.6,21.6,30.33,WNW,302,0.0,0.0,61,0.00,,,0.00,0,Wunderground v.1.15,2013-01-31 06:30:00,
2013-01-30 23:40:00,33.3,20.9,30.33,WNW,302,0.0,0.0,60,0.00,,,0.00,0,Wunderground v.1.15,2013-01-31 06:40:00,
2013-01-30 23:50:00,34.1,20.9,30.33,WNW,302,0.0,0.0,58,0.00,,,0.00,0,Wunderground v.1.15,2013-01-31 06:50:00,